Time;durP1;ratioP1;P1;durP2;ratioP2;P2;SDS_P1;SDS_P2;PMS_P1;PMS_P2;Temp;Humidity;BMP_temperature;BMP_pressure;BME280_temperature;BME280_humidity;BME280_pressure;Samples;Min_cycle;Max_cycle;Signal;HPM_P1;HPM_P2
2022/06/12 00:02:14;;;;;;;8.00;3.20;;;24.70;99.00;;;;;;5020641;28;20046;-71
2022/06/12 00:04:41;;;;;;;5.15;2.55;;;24.60;98.90;;;;;;5035598;28;20041;-72
2022/06/12 00:07:08;;;;;;;4.97;2.22;;;24.60;98.50;;;;;;5016922;28;20132;-71
2022/06/12 00:09:34;;;;;;;14.93;3.75;;;24.50;98.40;;;;;;5040457;28;20056;-72
2022/06/12 00:12:01;;;;;;;7.13;2.60;;;24.50;98.40;;;;;;5039321;28;20125;-72
2022/06/12 00:14:26;;;;;;;10.38;2.53;;;24.50;98.40;;;;;;5024951;28;20037;-72
2022/06/12 00:16:54;;;;;;;5.93;2.22;;;24.50;98.30;;;;;;5040887;28;20092;-71
2022/06/12 00:19:20;;;;;;;4.85;2.03;;;24.40;98.20;;;;;;5028052;28;20037;-72
2022/06/12 00:21:46;;;;;;;8.27;2.20;;;24.30;98.30;;;;;;5033664;28;20128;-72
2022/06/12 00:24:16;;;;;;;7.57;2.45;;;24.40;98.20;;;;;;5015492;28;20045;-71
2022/06/12 00:26:49;;;;;;;6.18;2.40;;;24.30;98.30;;;;;;5037014;28;20042;-72
2022/06/12 00:29:32;;;;;;;5.45;2.30;;;24.30;98.40;;;;;;5035754;28;20083;-72
2022/06/12 00:32:06;;;;;;;6.60;2.45;;;24.40;98.40;;;;;;5024130;28;20530;-73
2022/06/12 00:34:43;;;;;;;8.65;2.35;;;24.30;98.50;;;;;;5024638;28;20029;-71
2022/06/12 00:37:11;;;;;;;4.35;2.20;;;24.20;98.60;;;;;;5020857;28;20038;-72
2022/06/12 00:39:38;;;;;;;9.40;2.30;;;24.10;98.80;;;;;;5039288;28;20047;-72
2022/06/12 00:42:06;;;;;;;7.68;2.15;;;24.10;98.80;;;;;;5022101;28;20541;-71
2022/06/12 00:44:37;;;;;;;8.82;2.17;;;24.10;98.80;;;;;;5020995;28;20062;-72
2022/06/12 00:47:07;;;;;;;5.50;2.22;;;24.10;98.80;;;;;;5047467;28;20036;-73
2022/06/12 00:49:40;;;;;;;4.72;1.73;;;24.10;98.80;;;;;;5021849;28;20038;-72
2022/06/12 00:52:29;;;;;;;7.75;1.65;;;24.20;98.80;;;;;;5043805;28;20057;-72
2022/06/12 00:55:01;;;;;;;4.22;1.67;;;24.20;98.80;;;;;;5021530;28;20052;-71
2022/06/12 00:57:29;;;;;;;6.55;2.15;;;24.30;98.80;;;;;;5037387;28;20041;-71
2022/06/12 00:59:59;;;;;;;8.40;2.00;;;24.30;98.80;;;;;;5020010;28;20056;-72
2022/06/12 01:02:31;;;;;;;5.65;2.22;;;24.30;98.80;;;;;;5024093;28;20503;-72
2022/06/12 01:07:53;;;;;;;6.40;2.40;;;24.40;98.70;;;;;;4996599;28;20121;-73
2022/06/12 01:10:20;;;;;;;6.25;1.90;;;24.40;98.80;;;;;;5038124;28;20537;-72
2022/06/12 01:12:52;;;;;;;7.25;2.30;;;24.30;98.80;;;;;;5036257;28;20050;-72
2022/06/12 01:15:34;;;;;;;5.55;2.00;;;24.30;98.80;;;;;;5034884;28;20038;-72
2022/06/12 01:18:00;;;;;;;5.90;2.22;;;24.30;99.00;;;;;;5046075;28;20524;-72
2022/06/12 01:20:30;;;;;;;5.22;2.17;;;24.20;99.00;;;;;;5020811;28;20048;-71
2022/06/12 01:23:19;;;;;;;4.28;2.50;;;24.20;99.20;;;;;;5039071;28;20042;-72
2022/06/12 01:26:05;;;;;;;5.63;2.28;;;24.20;99.20;;;;;;5021710;28;20038;-71
2022/06/12 01:28:45;;;;;;;6.63;2.35;;;24.10;99.20;;;;;;5022110;28;20044;-72
2022/06/12 01:31:15;;;;;;;4.53;2.30;;;24.10;99.20;;;;;;5035516;28;20044;-72
2022/06/12 01:34:05;;;;;;;6.18;2.30;;;24.10;99.40;;;;;;5038427;28;20110;-72
2022/06/12 01:37:09;;;;;;;4.88;1.95;;;24.10;99.20;;;;;;5021575;28;20082;-71
2022/06/12 01:40:04;;;;;;;9.55;2.25;;;24.20;98.90;;;;;;5018302;28;20648;-72
2022/06/12 01:42:52;;;;;;;7.25;2.33;;;24.20;98.90;;;;;;5022467;28;20442;-72
2022/06/12 01:45:30;;;;;;;4.18;1.83;;;24.20;98.90;;;;;;5022963;28;20124;-71
2022/06/12 01:48:08;;;;;;;5.03;1.80;;;24.30;98.80;;;;;;5035524;28;20128;-72
2022/06/12 01:50:46;;;;;;;7.63;2.30;;;24.30;98.70;;;;;;5039638;28;20039;-72
2022/06/12 01:53:20;;;;;;;5.82;1.60;;;24.30;98.40;;;;;;5022937;28;20701;-72
2022/06/12 01:55:52;;;;;;;4.97;1.52;;;24.60;97.40;;;;;;5035859;28;20143;-72
2022/06/12 01:58:37;;;;;;;6.07;1.50;;;24.80;96.80;;;;;;5020102;28;20037;-72
2022/06/12 02:01:13;;;;;;;7.93;1.80;;;24.80;96.70;;;;;;5021873;28;20049;-72
2022/06/12 02:03:49;;;;;;;6.55;2.10;;;24.80;96.80;;;;;;5036132;28;20049;-73
2022/06/12 02:06:29;;;;;;;9.25;2.00;;;24.90;97.00;;;;;;5019740;28;21075;-72
2022/06/12 02:09:08;;;;;;;5.95;1.98;;;25.00;97.30;;;;;;5034692;28;20038;-72
2022/06/12 02:14:49;;;;;;;7.85;2.20;;;25.00;96.80;;;;;;5022145;28;20565;-72
2022/06/12 02:17:25;;;;;;;7.45;2.15;;;25.00;97.00;;;;;;5029778;28;20124;-72
2022/06/12 02:19:52;;;;;;;5.82;2.28;;;24.80;97.40;;;;;;5041002;28;20045;-73
2022/06/12 02:22:24;;;;;;;8.35;2.08;;;24.70;97.60;;;;;;5018998;28;20042;-73
2022/06/12 02:25:01;;;;;;;9.27;1.90;;;24.60;97.70;;;;;;5020016;28;20433;-73
2022/06/12 02:27:37;;;;;;;7.65;2.28;;;24.60;97.90;;;;;;5022497;28;20041;-72
2022/06/12 02:30:14;;;;;;;5.45;2.08;;;24.50;98.00;;;;;;5021860;28;20041;-71
2022/06/12 02:32:48;;;;;;;4.63;2.17;;;24.50;98.20;;;;;;5022437;28;20048;-72
2022/06/12 02:35:39;;;;;;;5.03;1.85;;;24.40;97.90;;;;;;5016696;28;20052;-71
2022/06/12 02:38:16;;;;;;;7.07;2.03;;;24.50;97.70;;;;;;5024962;28;20037;-72
2022/06/12 02:40:53;;;;;;;4.82;1.80;;;24.50;98.00;;;;;;5034844;28;20120;-72
2022/06/12 02:43:27;;;;;;;6.80;2.20;;;24.40;98.40;;;;;;5031856;28;20034;-71
2022/06/12 02:46:34;;;;;;;5.53;2.17;;;24.40;98.20;;;;;;5006428;28;20049;-72
2022/06/12 02:49:00;;;;;;;5.40;2.00;;;24.30;98.20;;;;;;5008566;28;20084;-72
2022/06/12 02:52:01;;;;;;;7.28;2.28;;;24.30;98.30;;;;;;5044500;28;20029;-72
2022/06/12 02:54:56;;;;;;;4.95;1.92;;;24.30;98.40;;;;;;5051260;28;20030;-73
2022/06/12 02:57:41;;;;;;;5.20;1.92;;;24.10;98.50;;;;;;5017542;28;20045;-73
2022/06/12 03:00:16;;;;;;;6.80;2.30;;;24.10;98.80;;;;;;5018112;28;20148;-72
2022/06/12 03:03:20;;;;;;;5.95;2.38;;;24.10;98.90;;;;;;5031727;28;20063;-72
2022/06/12 03:05:50;;;;;;;7.93;2.40;;;24.00;99.00;;;;;;5021984;28;20045;-72
2022/06/12 03:08:21;;;;;;;6.05;2.35;;;24.00;99.30;;;;;;5032016;28;20084;-71
2022/06/12 03:11:02;;;;;;;8.45;2.50;;;23.90;99.50;;;;;;5023534;28;20104;-73
2022/06/12 03:13:31;;;;;;;8.38;2.33;;;24.00;99.50;;;;;;5021088;28;20034;-72
2022/06/12 03:16:19;;;;;;;8.63;2.60;;;23.90;99.50;;;;;;5030992;28;20043;-72
2022/06/12 03:18:54;;;;;;;4.75;2.17;;;23.90;99.50;;;;;;5017111;28;20053;-72
2022/06/12 03:21:34;;;;;;;11.35;2.58;;;23.80;99.40;;;;;;5022134;28;20116;-73
2022/06/12 03:24:27;;;;;;;9.57;2.60;;;23.70;99.50;;;;;;5022846;28;20454;-73
2022/06/12 03:26:59;;;;;;;4.93;1.77;;;23.80;99.60;;;;;;5018435;28;20462;-72
2022/06/12 03:29:52;;;;;;;4.60;2.22;;;23.70;99.60;;;;;;5035728;28;20445;-72
2022/06/12 03:32:55;;;;;;;8.60;2.00;;;23.60;99.70;;;;;;5019501;28;20080;-72
2022/06/12 03:35:41;;;;;;;7.05;2.28;;;23.60;99.50;;;;;;5018489;28;20506;-72
2022/06/12 03:38:35;;;;;;;6.78;2.08;;;23.70;99.60;;;;;;5018824;28;20038;-72
2022/06/12 03:41:12;;;;;;;6.72;1.90;;;23.70;99.50;;;;;;5030179;28;20037;-72
2022/06/12 03:43:52;;;;;;;4.47;1.77;;;23.70;99.60;;;;;;5013155;28;20066;-72
2022/06/12 03:46:29;;;;;;;5.65;2.08;;;23.70;99.60;;;;;;5017522;28;20112;-72
2022/06/12 03:49:07;;;;;;;5.93;2.10;;;23.70;99.60;;;;;;5038730;28;20908;-73
2022/06/12 03:51:46;;;;;;;7.50;2.45;;;23.70;99.50;;;;;;5025348;28;20033;-71
2022/06/12 03:54:25;;;;;;;5.55;2.53;;;23.80;99.30;;;;;;5051916;28;20553;-71
2022/06/12 04:00:18;;;;;;;8.63;2.53;;;23.70;99.60;;;;;;5024897;28;20040;-72
2022/06/12 04:02:47;;;;;;;4.10;1.67;;;23.70;99.70;;;;;;5028714;28;20040;-72
2022/06/12 04:05:26;;;;;;;8.45;2.15;;;23.60;99.80;;;;;;5053865;28;20038;-73
2022/06/12 04:07:56;;;;;;;5.95;2.88;;;23.60;99.90;;;;;;5021077;28;20042;-71
2022/06/12 04:10:25;;;;;;;6.95;2.90;;;23.50;99.90;;;;;;5019575;28;20041;-72
2022/06/12 04:12:53;;;;;;;4.65;2.55;;;23.60;99.90;;;;;;5039131;28;20040;-71
2022/06/12 04:15:31;;;;;;;8.93;2.67;;;23.60;99.90;;;;;;5022777;28;20029;-72
2022/06/12 04:17:58;;;;;;;6.50;2.35;;;23.50;99.90;;;;;;5054198;28;20110;-72
2022/06/12 04:20:30;;;;;;;6.85;2.40;;;23.60;99.90;;;;;;5025381;28;21134;-72
2022/06/12 04:22:59;;;;;;;;;;;23.50;99.90;;;;;;5025089;28;20041;-72
2022/06/12 04:25:32;;;;;;;5.75;2.38;;;23.50;99.90;;;;;;5020291;28;19917;-73
2022/06/12 04:27:58;;;;;;;6.20;2.63;;;23.50;99.90;;;;;;5024507;28;20117;-71
2022/06/12 04:30:31;;;;;;;8.05;2.58;;;23.50;99.90;;;;;;5027944;28;20099;-72
2022/06/12 04:33:22;;;;;;;6.00;2.20;;;23.50;99.90;;;;;;5034915;28;20052;-72
2022/06/12 04:35:55;;;;;;;7.32;2.65;;;23.50;99.90;;;;;;5038264;28;20509;-73
2022/06/12 04:38:22;;;;;;;4.93;1.92;;;23.50;99.90;;;;;;5015720;28;20041;-72
2022/06/12 04:40:49;;;;;;;3.28;1.98;;;23.60;99.70;;;;;;5024095;28;20121;-72
2022/06/12 04:43:16;;;;;;;5.30;1.70;;;23.80;99.20;;;;;;5022841;28;20214;-72
2022/06/12 04:45:43;;;;;;;5.95;1.80;;;24.00;98.70;;;;;;5021612;28;20049;-71
2022/06/12 04:48:19;;;;;;;5.07;1.70;;;24.20;98.40;;;;;;5024418;28;20025;-72
2022/06/12 04:50:45;;;;;;;6.57;1.75;;;24.20;98.40;;;;;;5024190;28;20029;-73
2022/06/12 04:53:12;;;;;;;7.57;2.00;;;24.40;98.10;;;;;;5025745;28;20500;-72
2022/06/12 04:55:38;;;;;;;8.25;1.63;;;24.50;98.20;;;;;;5009941;28;20030;-72
2022/06/12 04:58:06;;;;;;;6.13;1.75;;;24.60;97.60;;;;;;5023503;28;20064;-72
2022/06/12 05:00:35;;;;;;;6.65;1.35;;;24.80;97.30;;;;;;5026402;28;20108;-72
2022/06/12 05:03:02;;;;;;;7.90;1.65;;;24.90;97.30;;;;;;5043782;28;20049;-72
2022/06/12 05:05:28;;;;;;;6.38;1.80;;;25.00;97.30;;;;;;5032192;28;20560;-72
2022/06/12 05:07:54;;;;;;;4.38;1.65;;;25.00;97.10;;;;;;5020821;28;20046;-73
2022/06/12 05:10:20;;;;;;;6.30;2.10;;;24.90;97.60;;;;;;5007520;28;20030;-72
2022/06/12 05:12:46;;;;;;;7.63;1.70;;;25.00;97.40;;;;;;5034706;28;20423;-72
2022/06/12 05:15:12;;;;;;;4.88;1.70;;;25.30;97.20;;;;;;5040472;28;20216;-71
2022/06/12 05:17:42;;;;;;;4.90;1.80;;;25.40;97.10;;;;;;5035222;28;20038;-72
2022/06/12 05:20:15;;;;;;;7.97;2.10;;;25.40;96.90;;;;;;5038013;28;20049;-72
2022/06/12 05:22:42;;;;;;;8.55;1.65;;;25.50;96.80;;;;;;5021512;28;20040;-72
2022/06/12 05:25:09;;;;;;;5.75;1.60;;;25.60;96.60;;;;;;5039669;28;20033;-72
2022/06/12 05:27:35;;;;;;;6.28;2.10;;;25.70;96.50;;;;;;5021939;28;20573;-72
2022/06/12 05:30:05;;;;;;;4.75;1.90;;;25.60;97.30;;;;;;5008416;28;20045;-71
2022/06/12 05:32:31;;;;;;;5.10;2.00;;;25.60;97.20;;;;;;5025437;28;20049;-72
2022/06/12 05:34:58;;;;;;;4.88;1.83;;;25.50;97.00;;;;;;5023632;28;20044;-73
2022/06/12 05:37:24;;;;;;;5.10;2.10;;;25.70;96.80;;;;;;5043643;28;20042;-72
2022/06/12 05:39:50;;;;;;;5.43;1.90;;;25.70;96.70;;;;;;5023224;28;20041;-72
2022/06/12 05:42:15;;;;;;;5.78;1.92;;;25.80;96.60;;;;;;5019039;28;20508;-72
2022/06/12 05:44:43;;;;;;;5.22;1.65;;;26.00;96.30;;;;;;5021404;28;20053;-72
2022/06/12 05:47:10;;;;;;;7.80;2.22;;;26.00;96.50;;;;;;5018227;28;20829;-72
2022/06/12 05:49:36;;;;;;;7.05;2.70;;;26.00;97.00;;;;;;5035309;28;20049;-72
2022/06/12 05:52:02;;;;;;;8.10;2.85;;;25.90;97.40;;;;;;5021904;28;20048;-71
2022/06/12 05:54:28;;;;;;;7.30;2.95;;;25.70;98.30;;;;;;5019080;28;20046;-71
2022/06/12 05:56:54;;;;;;;7.75;3.20;;;25.70;98.60;;;;;;5025961;28;20099;-72
2022/06/12 05:59:20;;;;;;;7.10;3.10;;;25.60;98.60;;;;;;5036254;28;20057;-72
2022/06/12 06:01:46;;;;;;;8.05;3.20;;;25.60;98.80;;;;;;5021466;28;20683;-73
2022/06/12 06:04:12;;;;;;;5.93;2.65;;;25.60;98.90;;;;;;5015294;28;20046;-72
2022/06/12 06:06:45;;;;;;;11.88;3.28;;;25.70;98.80;;;;;;5025682;28;20460;-72
2022/06/12 06:09:12;;;;;;;6.82;2.97;;;25.60;98.30;;;;;;5023484;28;20054;-72
2022/06/12 06:11:39;;;;;;;6.63;2.30;;;25.80;98.30;;;;;;5025600;28;20033;-71
2022/06/12 06:14:07;;;;;;;8.18;2.83;;;25.90;98.00;;;;;;5018457;28;20129;-72
2022/06/12 06:16:36;;;;;;;5.80;2.72;;;26.00;98.00;;;;;;5018673;28;20137;-72
2022/06/12 06:19:03;;;;;;;7.88;3.25;;;26.10;98.10;;;;;;5038572;28;20033;-73
2022/06/12 06:21:31;;;;;;;6.45;2.85;;;26.10;98.30;;;;;;5025473;28;20029;-72
2022/06/12 06:23:57;;;;;;;7.57;3.22;;;26.20;98.30;;;;;;5038215;28;20041;-73
2022/06/12 06:26:23;;;;;;;6.03;3.45;;;26.20;98.20;;;;;;5021308;28;20135;-73
2022/06/12 06:28:52;;;;;;;8.85;2.60;;;26.30;98.40;;;;;;5025046;28;20564;-73
2022/06/12 06:31:19;;;;;;;8.32;2.60;;;26.40;97.70;;;;;;5036654;28;20049;-73
2022/06/12 06:33:45;;;;;;;7.18;2.38;;;26.60;97.50;;;;;;5023549;28;20073;-74
2022/06/12 06:36:14;;;;;;;8.32;2.35;;;26.70;97.20;;;;;;5023733;28;20033;-74
2022/06/12 06:38:40;;;;;;;4.95;2.30;;;26.80;97.10;;;;;;5024453;28;20033;-74
2022/06/12 06:41:07;;;;;;;6.88;2.22;;;26.90;96.90;;;;;;5033722;28;20038;-73
2022/06/12 06:46:13;;;;;;;9.40;2.40;;;27.00;96.50;;;;;;5054361;28;20044;-72
2022/06/12 06:46:20;;;;;;;5.80;2.30;;;27.10;96.50;;;;;;4994721;28;20042;-72
2022/06/12 06:48:47;;;;;;;6.80;2.05;;;27.30;96.40;;;;;;5034780;28;20045;-72
2022/06/12 06:51:14;;;;;;;6.45;2.78;;;27.40;96.30;;;;;;5016678;28;20176;-73
2022/06/12 06:53:40;;;;;;;3.78;1.65;;;27.40;96.20;;;;;;5018071;28;20068;-72
2022/06/12 06:56:06;;;;;;;8.32;2.25;;;27.40;96.20;;;;;;5017258;28;20614;-72
2022/06/12 06:58:33;;;;;;;7.00;2.05;;;27.50;96.00;;;;;;5040566;28;20036;-72
2022/06/12 07:00:59;;;;;;;4.43;1.95;;;27.70;95.80;;;;;;5027944;28;20557;-72
2022/06/12 07:03:25;;;;;;;5.95;1.73;;;27.80;95.60;;;;;;5022609;28;20093;-72
2022/06/12 07:05:52;;;;;;;6.78;2.10;;;28.00;95.40;;;;;;5023580;28;20041;-73
2022/06/12 07:08:21;;;;;;;7.32;2.20;;;28.10;95.30;;;;;;5018309;28;20491;-72
2022/06/12 07:10:49;;;;;;;7.65;2.15;;;28.20;95.00;;;;;;5037996;28;20029;-72
2022/06/12 07:13:15;;;;;;;3.97;1.88;;;28.20;94.80;;;;;;5014922;28;20044;-72
2022/06/12 07:15:42;;;;;;;6.30;1.92;;;28.30;94.90;;;;;;5019042;28;20030;-71
2022/06/12 07:18:08;;;;;;;9.20;2.20;;;28.30;94.80;;;;;;5020622;28;20045;-72
2022/06/12 07:20:38;;;;;;;3.65;1.80;;;28.30;94.80;;;;;;5019861;28;20037;-72
2022/06/12 07:23:07;;;;;;;5.82;1.90;;;28.30;94.60;;;;;;5037495;28;20493;-72
2022/06/12 07:25:39;;;;;;;4.90;1.85;;;28.30;94.60;;;;;;5037249;28;20505;-72
2022/06/12 07:28:06;;;;;;;4.63;2.03;;;28.30;94.60;;;;;;5023286;28;20037;-72
2022/06/12 07:30:32;;;;;;;5.97;2.10;;;28.40;94.40;;;;;;5023777;28;20033;-72
2022/06/12 07:32:58;;;;;;;4.85;2.03;;;28.50;94.10;;;;;;5021912;28;20121;-72
2022/06/12 07:35:25;;;;;;;8.65;3.00;;;28.70;94.50;;;;;;5013281;28;20507;-72
2022/06/12 07:37:51;;;;;;;7.53;2.80;;;28.70;95.20;;;;;;5038092;28;20044;-72
2022/06/12 07:40:26;;;;;;;7.82;3.20;;;28.60;95.30;;;;;;5020633;28;20034;-72
2022/06/12 07:42:52;;;;;;;8.27;3.17;;;28.60;95.40;;;;;;5039740;28;20033;-72
2022/06/12 07:45:18;;;;;;;8.43;3.00;;;28.60;95.30;;;;;;5025233;28;20041;-72
2022/06/12 07:47:44;;;;;;;5.18;3.28;;;28.60;95.30;;;;;;5025263;28;20041;-72
2022/06/12 07:50:11;;;;;;;8.20;2.78;;;28.70;95.40;;;;;;5020871;28;20037;-72
2022/06/12 07:52:40;;;;;;;11.77;3.45;;;28.70;95.10;;;;;;5021142;28;20116;-72
2022/06/12 07:55:08;;;;;;;6.05;2.80;;;28.80;95.10;;;;;;5020781;28;20474;-73
2022/06/12 07:57:34;;;;;;;12.07;3.22;;;28.90;94.70;;;;;;5022385;28;20586;-71
2022/06/12 08:00:00;;;;;;;8.77;2.63;;;29.00;94.90;;;;;;5024973;28;20046;-72
2022/06/12 08:02:27;;;;;;;5.60;2.83;;;29.10;94.80;;;;;;5026410;28;20044;-74
2022/06/12 08:04:54;;;;;;;10.23;3.00;;;29.30;94.40;;;;;;5023036;28;20049;-72
2022/06/12 08:07:20;;;;;;;6.43;2.83;;;29.50;94.00;;;;;;5022237;28;20463;-73
2022/06/12 08:09:45;;;;;;;9.20;3.03;;;29.60;94.10;;;;;;5022056;28;20041;-72
2022/06/12 08:12:13;;;;;;;5.53;2.50;;;29.70;94.10;;;;;;5038208;28;20026;-72
2022/06/12 08:14:38;;;;;;;7.75;3.00;;;29.70;94.00;;;;;;5036789;28;20494;-72
2022/06/12 08:17:05;;;;;;;12.02;3.50;;;29.80;93.90;;;;;;5026075;28;20030;-72
2022/06/12 08:22:16;;;;;;;8.82;3.40;;;29.90;93.90;;;;;;5022294;28;20461;-72
2022/06/12 08:24:43;;;;;;;8.38;3.22;;;30.00;94.00;;;;;;5020074;28;20037;-72
2022/06/12 08:27:10;;;;;;;10.30;4.00;;;30.10;94.00;;;;;;5020791;28;20129;-72
2022/06/12 08:29:37;;;;;;;8.40;3.13;;;30.10;93.90;;;;;;5031056;28;20025;-72
2022/06/12 08:32:17;;;;;;;8.73;3.15;;;30.20;94.00;;;;;;5025030;28;20488;-71
2022/06/12 08:34:48;;;;;;;6.53;2.60;;;30.10;93.60;;;;;;5035559;28;20076;-72
2022/06/12 08:37:17;;;;;;;7.15;3.00;;;30.10;93.70;;;;;;5025842;28;20548;-72
2022/06/12 08:39:43;;;;;;;6.30;2.80;;;30.20;93.70;;;;;;5038209;28;20041;-72
2022/06/12 08:42:17;;;;;;;8.07;2.95;;;30.30;93.80;;;;;;5019769;28;20045;-72
2022/06/12 08:45:07;;;;;;;12.48;3.35;;;30.50;93.50;;;;;;5057261;28;20041;-71
2022/06/12 08:47:57;;;;;;;9.63;3.42;;;30.50;93.20;;;;;;5034235;28;20570;-73
2022/06/12 08:50:37;;;;;;;8.90;2.97;;;30.60;93.30;;;;;;5022315;28;20527;-72
2022/06/12 08:53:16;;;;;;;9.70;2.92;;;30.80;93.00;;;;;;5020207;28;20384;-72
2022/06/12 08:55:46;;;;;;;7.90;2.80;;;30.80;92.80;;;;;;5018591;28;20030;-73
2022/06/12 08:58:23;;;;;;;5.68;2.83;;;30.80;92.80;;;;;;5041708;28;20033;-72
2022/06/12 09:00:49;;;;;;;9.05;3.60;;;31.00;92.50;;;;;;5033503;28;20038;-73
2022/06/12 09:03:19;;;;;;;10.02;3.45;;;30.90;92.40;;;;;;5037522;28;20128;-73
2022/06/12 09:06:24;;;;;;;10.88;3.22;;;30.80;92.20;;;;;;5038166;28;20041;-73
2022/06/12 09:09:09;;;;;;;8.25;3.20;;;30.90;92.50;;;;;;4987739;28;20041;-72
2022/06/12 09:11:46;;;;;;;7.80;3.38;;;31.00;92.40;;;;;;5016750;28;20029;-73
2022/06/12 09:14:41;;;;;;;6.72;2.65;;;31.00;92.10;;;;;;5019407;28;20033;-73
2022/06/12 09:17:22;;;;;;;9.68;2.92;;;31.00;91.20;;;;;;5054955;28;20072;-73
2022/06/12 09:20:11;;;;;;;8.40;2.70;;;31.10;91.50;;;;;;5039107;28;20056;-72
2022/06/12 09:23:07;;;;;;;7.55;2.40;;;31.30;91.20;;;;;;5031798;28;20049;-72
2022/06/12 09:25:48;;;;;;;6.80;2.97;;;31.40;90.50;;;;;;5020940;28;20406;-73
2022/06/12 09:28:45;;;;;;;7.82;2.88;;;31.70;90.70;;;;;;5020976;28;20118;-71
2022/06/12 09:31:33;;;;;;;7.35;2.70;;;31.00;94.10;;;;;;5021815;28;20186;-72
2022/06/12 09:34:08;;;;;;;8.70;2.88;;;30.70;94.50;;;;;;5020124;28;20069;-73
2022/06/12 09:38:18;;;;;;;11.57;3.22;;;30.50;95.20;;;;;;5035697;28;20041;-73
2022/06/12 09:40:04;;;;;;;6.47;2.72;;;30.60;95.30;;;;;;5017488;28;20034;-73
2022/06/12 09:43:05;;;;;;;10.73;2.80;;;30.60;95.70;;;;;;5019927;28;20095;-71
2022/06/12 09:45:58;;;;;;;5.80;2.72;;;30.50;95.90;;;;;;5014681;28;20568;-72
2022/06/12 09:48:41;;;;;;;6.68;2.45;;;30.50;96.00;;;;;;5027232;28;20674;-73
2022/06/12 09:51:15;;;;;;;8.43;2.97;;;30.20;96.10;;;;;;5018175;28;20346;-73
2022/06/12 09:54:05;;;;;;;9.02;2.90;;;30.20;96.30;;;;;;5019943;28;20516;-73
2022/06/12 09:56:42;;;;;;;6.82;2.90;;;30.60;96.10;;;;;;5021695;28;20034;-73
2022/06/12 09:59:17;;;;;;;8.88;3.17;;;30.60;95.80;;;;;;5021682;28;20053;-72
2022/06/12 10:01:47;;;;;;;9.07;3.03;;;30.40;96.10;;;;;;5024527;28;20037;-73
2022/06/12 10:04:18;;;;;;;9.38;2.78;;;30.40;96.30;;;;;;5032827;28;20041;-73
2022/06/12 10:07:09;;;;;;;13.13;3.40;;;30.70;96.10;;;;;;5038062;28;20044;-73
2022/06/12 10:09:49;;;;;;;5.57;2.58;;;31.20;95.90;;;;;;5032952;28;20037;-73
2022/06/12 10:12:22;;;;;;;9.13;3.25;;;31.10;95.30;;;;;;5035246;28;20381;-74
2022/06/12 10:14:52;;;;;;;6.78;2.42;;;31.30;95.40;;;;;;5022821;28;20037;-72
2022/06/12 10:17:33;;;;;;;9.90;3.03;;;31.60;95.10;;;;;;5053335;28;20083;-72
2022/06/12 10:20:02;;;;;;;6.70;2.90;;;31.70;94.70;;;;;;5033735;28;20061;-71
2022/06/12 10:22:30;;;;;;;6.95;2.60;;;31.90;93.40;;;;;;5001007;28;20042;-73
2022/06/12 10:24:59;;;;;;;8.10;2.60;;;32.10;93.10;;;;;;4998864;28;20065;-72
2022/06/12 10:27:25;;;;;;;5.90;2.92;;;32.30;92.70;;;;;;5014024;28;20056;-73
2022/06/12 10:29:57;;;;;;;11.55;2.60;;;32.50;92.40;;;;;;5013651;28;20084;-72
2022/06/12 10:32:31;;;;;;;7.30;2.30;;;32.60;92.10;;;;;;4999590;28;20145;-72
2022/06/12 10:35:18;;;;;;;5.97;2.20;;;32.60;91.70;;;;;;5000248;28;20042;-73
2022/06/12 10:37:43;;;;;;;6.82;2.25;;;32.70;91.40;;;;;;4997078;28;20049;-72
2022/06/12 10:40:24;;;;;;;7.82;3.10;;;32.80;91.30;;;;;;5014791;28;20470;-72
2022/06/12 10:43:17;;;;;;;8.60;2.77;;;32.70;91.50;;;;;;5002956;28;20180;-72
2022/06/12 10:45:42;;;;;;;9.32;3.08;;;32.80;91.30;;;;;;5002382;28;20062;-71
2022/06/12 10:48:29;;;;;;;9.32;2.63;;;33.00;91.40;;;;;;5014341;28;20073;-71
2022/06/12 10:51:22;;;;;;;9.60;2.47;;;33.00;90.80;;;;;;5028952;28;20116;-72
2022/06/12 10:54:00;;;;;;;5.50;2.33;;;32.90;90.60;;;;;;4999462;28;20140;-73
2022/06/12 10:56:59;;;;;;;8.52;2.10;;;33.10;90.30;;;;;;4996315;28;20046;-72
2022/06/12 10:59:44;;;;;;;7.15;2.38;;;33.10;89.90;;;;;;5001578;28;20054;-73
2022/06/12 11:02:36;;;;;;;10.05;2.90;;;33.30;89.80;;;;;;4995770;28;20042;-74
2022/06/12 11:05:33;;;;;;;6.38;2.60;;;33.40;89.20;;;;;;5011521;28;20058;-73
2022/06/12 11:08:22;;;;;;;7.05;2.53;;;33.60;89.00;;;;;;5005051;28;20435;-72
2022/06/12 11:11:19;;;;;;;4.75;2.20;;;33.80;88.70;;;;;;4995098;28;20034;-72
2022/06/12 11:13:59;;;;;;;11.27;2.63;;;33.80;88.00;;;;;;5002393;28;20069;-72
2022/06/12 11:16:28;;;;;;;5.90;2.50;;;33.80;87.90;;;;;;5049404;28;20393;-72
2022/06/12 11:19:15;;;;;;;6.90;2.28;;;33.60;88.40;;;;;;5052087;28;20125;-73
2022/06/12 11:22:23;;;;;;;7.25;2.30;;;33.40;87.90;;;;;;5052076;28;20045;-73
2022/06/12 11:25:09;;;;;;;6.47;2.40;;;33.60;88.10;;;;;;5010830;28;20134;-72
2022/06/12 11:27:49;;;;;;;5.80;2.15;;;33.80;87.70;;;;;;5049643;28;20034;-72
2022/06/12 11:30:47;;;;;;;7.90;2.67;;;34.10;87.20;;;;;;5052686;28;20516;-72
2022/06/12 11:33:49;;;;;;;6.00;2.60;;;34.20;87.00;;;;;;5012780;28;20045;-72
2022/06/12 11:36:31;;;;;;;6.88;2.30;;;34.30;87.00;;;;;;5045813;28;20033;-73
2022/06/12 11:39:17;;;;;;;7.43;2.85;;;34.70;86.40;;;;;;5020209;28;20045;-72
2022/06/12 11:42:05;;;;;;;8.88;2.50;;;34.80;86.30;;;;;;5017487;28;20030;-72
2022/06/12 11:44:45;;;;;;;5.30;2.22;;;34.60;86.40;;;;;;5020691;28;20117;-72
2022/06/12 11:47:50;;;;;;;7.78;2.20;;;34.90;85.80;;;;;;5002437;28;20507;-72
2022/06/12 11:50:34;;;;;;;5.65;2.63;;;34.90;86.10;;;;;;5032354;28;20068;-72
2022/06/12 11:53:08;;;;;;;8.02;3.25;;;35.10;85.70;;;;;;5019392;28;20040;-72
2022/06/12 11:55:58;;;;;;;8.10;3.42;;;35.30;85.40;;;;;;5055333;28;20041;-72
2022/06/12 11:58:51;;;;;;;5.78;3.35;;;35.40;85.60;;;;;;5034703;28;20041;-72
2022/06/12 12:01:29;;;;;;;10.57;3.50;;;35.00;85.40;;;;;;5020264;28;20497;-72
2022/06/12 12:04:08;;;;;;;7.03;2.70;;;34.90;86.10;;;;;;5023613;28;20128;-72
2022/06/12 12:06:55;;;;;;;6.93;2.42;;;35.10;86.40;;;;;;5019160;28;20050;-72
2022/06/12 12:09:45;;;;;;;5.20;2.67;;;35.70;85.70;;;;;;5020061;28;20117;-71
2022/06/12 12:12:27;;;;;;;11.18;3.03;;;35.90;85.60;;;;;;5019167;28;20715;-72
2022/06/12 12:14:57;;;;;;;5.55;2.58;;;35.90;85.40;;;;;;5021611;28;20065;-71
2022/06/12 12:17:34;;;;;;;6.35;2.20;;;35.80;84.80;;;;;;5054459;28;20049;-71
2022/06/12 12:20:25;;;;;;;6.30;2.50;;;36.10;83.80;;;;;;5034258;28;20464;-72
2022/06/12 12:23:08;;;;;;;6.57;2.75;;;36.30;84.20;;;;;;5021943;28;20607;-73
2022/06/12 12:25:42;;;;;;;7.63;2.67;;;36.50;84.30;;;;;;5017425;28;20816;-72
2022/06/12 12:28:38;;;;;;;10.27;4.20;;;36.50;84.00;;;;;;5034973;28;20042;-73
2022/06/12 12:31:14;;;;;;;7.20;4.03;;;36.70;83.80;;;;;;5013858;28;20060;-73
2022/06/12 12:33:45;;;;;;;12.73;6.35;;;37.00;83.70;;;;;;5048933;28;20041;-73
2022/06/12 12:41:45;;;;;;;12.48;5.45;;;37.20;83.70;;;;;;5021411;28;20115;-71
2022/06/12 12:44:27;;;;;;;8.02;3.53;;;36.90;84.20;;;;;;5022777;28;20099;-72
2022/06/12 12:46:54;;;;;;;8.30;4.35;;;37.20;83.80;;;;;;5055551;28;20041;-73
2022/06/12 12:49:35;;;;;;;9.23;4.10;;;37.40;83.80;;;;;;5031878;28;20562;-72
2022/06/12 12:52:04;;;;;;;9.13;3.53;;;37.60;84.00;;;;;;5024341;28;20034;-71
2022/06/12 12:54:51;;;;;;;11.88;4.32;;;37.70;84.00;;;;;;5017374;28;20041;-74
2022/06/12 12:57:35;;;;;;;10.73;5.22;;;38.20;83.80;;;;;;5011837;28;20049;-72
2022/06/12 13:00:05;;;;;;;10.18;2.95;;;38.30;83.70;;;;;;5023495;28;20544;-72
2022/06/12 13:02:45;;;;;;;13.73;5.65;;;38.30;84.00;;;;;;5037217;28;20132;-72
2022/06/12 13:05:22;;;;;;;9.30;2.95;;;37.60;84.30;;;;;;5025284;28;20157;-73
2022/06/12 13:07:56;;;;;;;6.45;3.20;;;36.80;85.70;;;;;;5019664;28;20060;-72
2022/06/12 13:10:58;;;;;;;11.32;4.60;;;37.10;85.20;;;;;;5036231;28;20030;-74
2022/06/12 13:13:24;;;;;;;7.18;2.58;;;37.20;85.20;;;;;;5020674;28;20453;-73
2022/06/12 13:16:19;;;;;;;9.98;3.17;;;37.00;86.10;;;;;;5023404;28;20037;-72
2022/06/12 13:18:48;;;;;;;7.05;2.65;;;36.90;86.80;;;;;;5023260;28;20551;-72
2022/06/12 13:21:30;;;;;;;4.85;2.42;;;36.70;87.60;;;;;;5032350;28;20030;-72
2022/06/12 13:24:31;;;;;;;9.82;2.25;;;36.10;88.80;;;;;;5037965;28;20596;-71
2022/06/12 13:26:59;;;;;;;5.00;1.90;;;35.20;88.00;;;;;;4974643;28;20046;-72
2022/06/12 13:29:26;;;;;;;7.55;2.03;;;34.60;90.20;;;;;;5035875;28;20048;-72
2022/06/12 13:32:01;;;;;;;5.45;1.90;;;33.90;90.70;;;;;;5017344;28;20141;-72
2022/06/12 13:34:30;;;;;;;7.68;1.98;;;33.50;91.30;;;;;;4997681;28;20041;-72
2022/06/12 13:36:58;;;;;;;5.78;2.13;;;33.40;91.80;;;;;;5046694;28;20041;-72
2022/06/12 13:39:31;;;;;;;4.50;1.65;;;33.50;91.90;;;;;;5052811;28;20087;-72
2022/06/12 13:42:03;;;;;;;6.00;1.95;;;33.00;91.60;;;;;;5052761;28;20497;-72
2022/06/12 13:44:40;;;;;;;6.47;1.52;;;33.30;91.90;;;;;;4999640;28;20121;-73
2022/06/12 13:47:30;;;;;;;4.88;1.55;;;33.60;91.40;;;;;;4998744;28;20054;-72